Time;durP1;ratioP1;P1;durP2;ratioP2;P2;SDS_P1;SDS_P2;PMS_P1;PMS_P2;Temp;Humidity;BMP_temperature;BMP_pressure;BME280_temperature;BME280_humidity;BME280_pressure;Samples;Min_cycle;Max_cycle;Signal;HPM_P1;HPM_P2
2021/01/29 00:00:48;;;;;;;60.77;29.00;;;0.00;99.90;;;;;;4956935;28;20227;-81
2021/01/29 00:03:17;;;;;;;67.10;31.53;;;0.00;99.90;;;;;;4994598;28;20199;-83
2021/01/29 00:05:51;;;;;;;65.93;32.53;;;0.00;99.90;;;;;;4994389;28;20181;-82
2021/01/29 00:08:21;;;;;;;69.53;30.07;;;0.30;99.90;;;;;;4993548;28;20182;-81
2021/01/29 00:10:47;;;;;;;65.97;29.20;;;;;;;;;;4994292;28;20178;-83
2021/01/29 00:13:14;;;;;;;71.37;35.20;;;;;;;;;;4993630;28;20192;-81
2021/01/29 00:15:47;;;;;;;63.53;29.67;;;;;;;;;;4993082;28;20186;-81
2021/01/29 00:18:13;;;;;;;65.97;32.07;;;;;;;;;;5008613;28;20177;-82
2021/01/29 00:20:40;;;;;;;71.87;31.30;;;0.00;99.90;;;;;;4993973;28;20295;-80
2021/01/29 00:23:08;;;;;;;68.03;30.97;;;0.00;99.90;;;;;;5009230;28;20186;-84
2021/01/29 00:25:37;;;;;;;68.40;35.53;;;0.00;99.90;;;;;;4992730;28;20246;-81
2021/01/29 00:28:05;;;;;;;66.03;31.20;;;0.00;99.90;;;;;;4994536;28;20217;-82
2021/01/29 00:30:32;;;;;;;65.27;33.53;;;;;;;;;;4976497;28;20204;-82
2021/01/29 00:32:59;;;;;;;71.10;33.17;;;-0.10;99.90;;;;;;4993243;28;20190;-82
2021/01/29 00:35:28;;;;;;;63.80;30.10;;;-0.10;99.90;;;;;;5009119;28;20696;-83
2021/01/29 00:37:54;;;;;;;69.60;32.00;;;;;;;;;;4994196;28;20181;-82
2021/01/29 00:40:22;;;;;;;76.03;32.10;;;-0.20;99.90;;;;;;4992976;28;20243;-82
2021/01/29 00:42:54;;;;;;;63.10;27.50;;;-0.30;99.90;;;;;;4994351;28;20190;-82
2021/01/29 00:45:28;;;;;;;67.67;30.50;;;-0.20;99.90;;;;;;4994316;28;20234;-82
2021/01/29 00:47:55;;;;;;;65.93;30.47;;;-0.20;99.90;;;;;;5009234;28;20193;-81
2021/01/29 00:50:21;;;;;;;71.33;30.47;;;;;;;;;;4993015;28;20207;-81
2021/01/29 00:52:49;;;;;;;68.77;30.30;;;;;;;;;;4993810;28;20190;-81
2021/01/29 00:55:18;;;;;;;67.43;31.20;;;-0.30;99.90;;;;;;4992551;28;20230;-83
2021/01/29 00:57:44;;;;;;;65.03;29.87;;;-0.30;99.90;;;;;;4992619;28;20193;-83
2021/01/29 01:00:14;;;;;;;66.13;31.27;;;-0.40;99.90;;;;;;4976526;28;20216;-82
2021/01/29 01:02:40;;;;;;;63.03;28.40;;;;;;;;;;4992346;28;20695;-83
2021/01/29 01:05:12;;;;;;;62.77;31.20;;;-0.60;99.90;;;;;;4992811;28;20283;-83
2021/01/29 01:07:38;;;;;;;63.33;28.50;;;;;;;;;;4993823;28;20183;-83
2021/01/29 01:10:13;;;;;;;56.47;24.93;;;-0.60;99.90;;;;;;4993301;28;20190;-82
2021/01/29 01:12:40;;;;;;;55.53;24.70;;;;;;;;;;5008431;28;20231;-81
2021/01/29 01:15:27;;;;;;;51.77;24.07;;;;;;;;;;4972439;28;20190;-83
2021/01/29 01:17:57;;;;;;;59.70;30.17;;;-0.70;99.90;;;;;;4972504;28;20191;-83
2021/01/29 01:20:26;;;;;;;56.83;24.83;;;-0.70;99.90;;;;;;4956223;28;20222;-82
2021/01/29 01:22:52;;;;;;;48.37;21.73;;;;;;;;;;4973132;28;20211;-83
2021/01/29 01:25:19;;;;;;;35.63;17.80;;;;;;;;;;4959867;28;20189;-83
2021/01/29 01:27:52;;;;;;;47.67;21.13;;;;;;;;;;4960056;28;20193;-81
2021/01/29 01:30:23;;;;;;;40.03;18.60;;;;;;;;;;4961673;28;20185;-81
2021/01/29 01:32:49;;;;;;;42.77;21.73;;;;;;;;;;4976141;28;20242;-82
2021/01/29 01:35:19;;;;;;;37.43;16.60;;;-0.70;99.90;;;;;;4975720;28;20197;-82
2021/01/29 01:37:45;;;;;;;37.57;18.10;;;;;;;;;;4975592;28;20191;-82
2021/01/29 01:40:14;;;;;;;35.93;17.83;;;-0.70;99.90;;;;;;4975691;28;20226;-83
2021/01/29 01:42:40;;;;;;;39.40;18.53;;;;;;;;;;4975647;28;20218;-86
2021/01/29 01:45:30;;;;;;;40.40;18.43;;;-0.70;99.90;;;;;;4959435;28;20190;-81
2021/01/29 01:48:04;;;;;;;39.33;18.90;;;;;;;;;;4975571;28;20191;-82
2021/01/29 01:50:57;;;;;;;39.60;23.77;;;-0.80;99.90;;;;;;4975461;28;20700;-82
2021/01/29 01:53:31;;;;;;;34.47;18.60;;;-0.90;99.90;;;;;;4957453;28;20195;-82
2021/01/29 01:56:40;;;;;;;35.03;13.90;;;-0.80;99.90;;;;;;4975317;28;20241;-82
2021/01/29 01:59:08;;;;;;;35.10;15.87;;;;;;;;;;4958455;28;20194;-83
2021/01/29 02:01:36;;;;;;;30.67;14.23;;;-1.00;99.90;;;;;;4959143;28;20223;-82
2021/01/29 02:04:04;;;;;;;29.87;14.40;;;;;;;;;;4974787;28;20189;-81
2021/01/29 02:06:35;;;;;;;30.77;17.50;;;;;;;;;;4988192;28;20199;-82
2021/01/29 02:09:05;;;;;;;23.20;10.83;;;-1.20;99.90;;;;;;4995474;28;20187;-82
2021/01/29 02:11:36;;;;;;;25.90;12.03;;;-1.30;99.90;;;;;;5012274;28;20189;-83
2021/01/29 02:14:02;;;;;;;26.30;14.03;;;;;;;;;;4978710;28;20289;-81
2021/01/29 02:16:36;;;;;;;28.57;12.50;;;;;;;;;;4995701;28;20199;-82
2021/01/29 02:19:08;;;;;;;28.03;13.53;;;;;;;;;;4996517;28;20184;-81
2021/01/29 02:21:59;;;;;;;30.13;14.37;;;-1.90;99.90;;;;;;4996200;28;20665;-83
2021/01/29 02:25:00;;;;;;;35.17;15.17;;;-1.60;99.90;;;;;;4995179;28;20289;-84
2021/01/29 02:27:55;;;;;;;29.90;16.13;;;-1.70;99.90;;;;;;4983014;28;20235;-84
2021/01/29 02:30:59;;;;;;;25.90;13.03;;;-1.70;99.90;;;;;;4996233;28;20239;-83
2021/01/29 02:34:22;;;;;;;24.00;12.07;;;-1.70;99.90;;;;;;4982384;28;20655;-84
2021/01/29 02:37:18;;;;;;;33.27;15.40;;;-1.80;99.90;;;;;;4962590;28;20191;-84
2021/01/29 02:40:09;;;;;;;29.23;16.47;;;-2.20;99.90;;;;;;4995661;28;20259;-84
2021/01/29 02:42:35;;;;;;;29.37;14.70;;;;;;;;;;4994554;28;20190;-84
2021/01/29 02:45:16;;;;;;;26.53;13.57;;;-2.20;99.90;;;;;;4995297;28;20178;-84
2021/01/29 02:47:58;;;;;;;23.43;12.13;;;-2.00;99.90;;;;;;4995953;28;20280;-83
2021/01/29 02:50:52;;;;;;;27.07;12.20;;;-2.00;99.90;;;;;;4995738;28;20185;-83
2021/01/29 02:53:55;;;;;;;17.07;8.80;;;-2.10;99.90;;;;;;4995901;28;20186;-83
2021/01/29 02:56:32;;;;;;;23.53;11.03;;;-2.10;99.90;;;;;;4987187;28;20210;-83
2021/01/29 02:59:01;;;;;;;20.57;10.33;;;-2.00;99.90;;;;;;4993902;28;20181;-83
2021/01/29 03:01:43;;;;;;;27.23;11.07;;;-2.00;99.90;;;;;;4995722;28;20205;-83
2021/01/29 03:04:35;;;;;;;18.53;8.67;;;-2.10;99.90;;;;;;4993859;28;20188;-83
2021/01/29 03:07:13;;;;;;;21.67;9.00;;;-2.20;99.90;;;;;;4993709;28;20665;-83
2021/01/29 03:09:46;;;;;;;21.97;9.50;;;-2.10;99.90;;;;;;4994238;28;20635;-83
2021/01/29 03:12:16;;;;;;;19.00;10.47;;;-2.30;99.90;;;;;;4994161;28;20185;-83
2021/01/29 03:15:13;;;;;;;14.50;7.73;;;-2.30;99.90;;;;;;4995770;28;20191;-83
2021/01/29 03:17:45;;;;;;;17.20;8.37;;;-2.40;99.90;;;;;;4990451;28;20278;-85
2021/01/29 03:20:36;;;;;;;14.27;8.53;;;-2.50;99.90;;;;;;4994879;28;20293;-83
2021/01/29 03:23:14;;;;;;;13.73;7.67;;;-2.40;99.90;;;;;;4991446;28;20198;-83
2021/01/29 03:25:44;;;;;;;17.67;8.80;;;-2.60;99.90;;;;;;4993499;28;20175;-83
2021/01/29 03:28:17;;;;;;;19.67;8.77;;;-2.70;99.90;;;;;;4993436;28;20174;-83
2021/01/29 03:30:47;;;;;;;20.10;8.63;;;-2.70;99.90;;;;;;4994745;28;20201;-83
2021/01/29 03:33:16;;;;;;;14.87;7.50;;;-2.80;99.90;;;;;;4993320;28;20212;-83
2021/01/29 03:36:04;;;;;;;11.63;7.40;;;-2.80;99.90;;;;;;4994672;28;20185;-83
2021/01/29 03:38:30;;;;;;;13.13;7.60;;;;;;;;;;4994809;28;20183;-83
2021/01/29 03:41:18;;;;;;;17.50;9.23;;;-2.70;99.90;;;;;;4993179;28;20230;-84
2021/01/29 03:44:15;;;;;;;19.57;7.77;;;-2.40;99.90;;;;;;4994786;28;20182;-83
2021/01/29 03:47:20;;;;;;;19.33;7.17;;;-3.00;99.90;;;;;;4992613;28;20710;-83
2021/01/29 03:49:46;;;;;;;16.73;7.87;;;;;;;;;;4988586;28;20232;-83
2021/01/29 03:52:15;;;;;;;18.50;9.33;;;-3.20;99.90;;;;;;4993089;28;20214;-84
2021/01/29 03:55:02;;;;;;;15.03;6.87;;;-3.20;99.90;;;;;;5001662;28;20241;-83
2021/01/29 03:57:42;;;;;;;14.80;5.90;;;-3.30;99.90;;;;;;4996645;28;20573;-83
2021/01/29 04:00:11;;;;;;;16.10;7.80;;;-3.40;99.90;;;;;;4996071;28;20202;-84
2021/01/29 04:02:37;;;;;;;10.40;6.73;;;;;;;;;;4996326;28;20196;-84
2021/01/29 04:05:17;;;;;;;17.63;8.57;;;-3.50;99.90;;;;;;5015362;28;20177;-84
2021/01/29 04:07:56;;;;;;;16.10;7.87;;;-3.50;99.90;;;;;;5013978;28;20626;-84
2021/01/29 04:10:28;;;;;;;14.60;6.03;;;-3.40;99.90;;;;;;5013788;28;20182;-84
2021/01/29 04:12:57;;;;;;;13.53;7.70;;;;;;;;;;5014114;28;20639;-83
2021/01/29 04:15:33;;;;;;;15.07;6.80;;;-3.50;99.90;;;;;;5012441;28;20192;-83
2021/01/29 04:18:28;;;;;;;15.57;7.13;;;-3.50;99.90;;;;;;4996339;28;20188;-83
2021/01/29 04:21:07;;;;;;;17.20;7.77;;;-3.90;99.90;;;;;;5011265;28;20217;-83
2021/01/29 04:23:42;;;;;;;15.33;6.97;;;-3.50;99.90;;;;;;5013946;28;20171;-84
2021/01/29 04:26:18;;;;;;;11.97;6.63;;;-3.60;99.90;;;;;;5013283;28;20190;-86
2021/01/29 04:28:49;;;;;;;16.53;7.67;;;-3.60;99.90;;;;;;5013768;28;20174;-85
2021/01/29 04:31:18;;;;;;;8.83;4.73;;;-3.70;99.90;;;;;;5013433;28;20220;-84
2021/01/29 04:33:50;;;;;;;14.83;6.83;;;-3.80;99.90;;;;;;5013488;28;20189;-84
2021/01/29 04:36:20;;;;;;;23.63;10.83;;;-3.80;99.90;;;;;;5013132;28;20260;-85
2021/01/29 04:38:51;;;;;;;21.80;9.23;;;-3.80;99.90;;;;;;4995631;28;20185;-85
2021/01/29 04:41:31;;;;;;;18.17;9.03;;;-3.90;99.90;;;;;;5013248;28;20237;-83
2021/01/29 04:44:16;;;;;;;19.20;8.17;;;-4.00;99.90;;;;;;5013618;28;20165;-83
2021/01/29 04:46:42;;;;;;;21.57;11.20;;;;;;;;;;5013359;28;20268;-85
2021/01/29 04:49:29;;;;;;;18.63;9.50;;;-3.80;99.90;;;;;;5013128;28;20644;-85
2021/01/29 04:52:18;;;;;;;16.03;8.23;;;-3.90;99.90;;;;;;5012318;28;20185;-85
2021/01/29 04:55:20;;;;;;;13.90;8.47;;;-3.90;99.90;;;;;;5013327;28;20233;-84
2021/01/29 04:58:16;;;;;;;18.13;10.83;;;-3.80;99.90;;;;;;5013071;28;20683;-84
2021/01/29 05:01:24;;;;;;;15.80;8.00;;;-3.80;99.90;;;;;;4999429;28;20212;-84
2021/01/29 05:04:12;;;;;;;19.53;8.17;;;-3.80;99.90;;;;;;5011658;28;20189;-84
2021/01/29 05:07:10;;;;;;;15.27;7.70;;;-3.70;99.90;;;;;;5017308;28;20223;-84
2021/01/29 05:10:08;;;;;;;17.23;7.53;;;-3.70;99.90;;;;;;4994638;28;20221;-84
2021/01/29 05:12:34;;;;;;;16.63;7.87;;;;;;;;;;4999833;28;20180;-84
2021/01/29 05:15:09;;;;;;;15.83;7.37;;;;;;;;;;5015719;28;20649;-84
2021/01/29 05:17:54;;;;;;;18.03;8.67;;;-3.40;99.90;;;;;;5016844;28;20200;-84
2021/01/29 05:20:55;;;;;;;20.53;7.90;;;-3.60;99.90;;;;;;5016651;28;20196;-84
2021/01/29 05:23:50;;;;;;;12.77;6.33;;;-3.80;99.90;;;;;;5016208;28;20184;-85
2021/01/29 05:26:43;;;;;;;11.50;6.50;;;-4.00;99.90;;;;;;5012436;28;20197;-84
2021/01/29 05:29:39;;;;;;;11.13;5.27;;;-3.70;99.90;;;;;;5016562;28;20189;-84
2021/01/29 05:32:32;;;;;;;17.23;7.83;;;-3.60;99.90;;;;;;5016999;28;20591;-84
2021/01/29 05:35:29;;;;;;;18.07;7.37;;;-3.80;99.90;;;;;;5015186;28;20183;-84
2021/01/29 05:38:16;;;;;;;14.10;6.73;;;-3.70;99.90;;;;;;5016681;28;20280;-84
2021/01/29 05:41:06;;;;;;;18.33;7.00;;;-3.60;99.90;;;;;;4998656;28;20197;-84
2021/01/29 05:44:07;;;;;;;15.53;7.37;;;-3.40;99.90;;;;;;4998507;28;20541;-85
2021/01/29 05:46:48;;;;;;;13.00;7.60;;;-2.80;99.90;;;;;;5016418;28;20198;-84
2021/01/29 05:49:24;;;;;;;18.10;7.60;;;-3.30;99.90;;;;;;5012031;28;20186;-86
2021/01/29 05:52:27;;;;;;;12.27;6.80;;;-3.50;99.90;;;;;;4997319;28;20596;-86
2021/01/29 05:55:05;;;;;;;15.93;7.43;;;-3.30;99.90;;;;;;4966377;28;20238;-85
2021/01/29 05:58:04;;;;;;;9.50;5.20;;;-3.40;99.90;;;;;;5018639;28;20572;-85
2021/01/29 06:01:17;;;;;;;15.93;6.63;;;-3.30;99.90;;;;;;5011118;28;20218;-84
2021/01/29 06:04:09;;;;;;;12.50;6.23;;;-3.30;99.90;;;;;;4947151;29;20192;-84
2021/01/29 06:06:57;;;;;;;11.57;6.27;;;-3.30;99.90;;;;;;4976987;28;20207;-85
2021/01/29 06:09:23;;;;;;;15.00;6.20;;;;;;;;;;5004437;28;20191;-84
2021/01/29 06:12:26;;;;;;;15.00;6.97;;;-3.30;99.90;;;;;;5010667;28;20193;-84
2021/01/29 06:14:52;;;;;;;14.87;6.33;;;;;;;;;;5022502;28;20684;-87
2021/01/29 06:17:18;;;;;;;11.10;5.53;;;;;;;;;;5010982;28;20288;-86
2021/01/29 06:19:44;;;;;;;11.67;5.97;;;;;;;;;;5031449;28;20602;-86
2021/01/29 06:22:31;;;;;;;12.80;5.27;;;-3.20;99.90;;;;;;5032266;28;20290;-86
2021/01/29 06:25:19;;;;;;;9.13;4.47;;;-3.10;99.90;;;;;;5012016;28;20196;-84
2021/01/29 06:27:57;;;;;;;12.03;6.63;;;-3.10;99.90;;;;;;5006244;28;20642;-84
2021/01/29 06:30:23;;;;;;;13.00;5.27;;;;;;;;;;5028162;28;20227;-84
2021/01/29 06:32:58;;;;;;;11.93;6.40;;;-3.50;99.90;;;;;;5012635;28;20187;-83
2021/01/29 06:35:35;;;;;;;12.43;6.30;;;-3.20;99.90;;;;;;5013676;28;20209;-84
2021/01/29 06:38:06;;;;;;;11.47;5.50;;;-3.20;99.90;;;;;;4998397;28;20700;-83
2021/01/29 06:40:32;;;;;;;12.73;6.67;;;;;;;;;;5017292;28;20239;-84
2021/01/29 06:43:30;;;;;;;13.23;6.70;;;-2.90;99.90;;;;;;4999078;28;20221;-83
2021/01/29 06:46:20;;;;;;;11.53;7.07;;;-3.10;99.90;;;;;;5016762;28;20260;-84
2021/01/29 06:49:13;;;;;;;14.23;7.07;;;-3.00;99.90;;;;;;5013749;28;20654;-83
2021/01/29 06:51:42;;;;;;;16.67;7.47;;;-3.10;99.90;;;;;;5006623;28;20194;-84
2021/01/29 06:54:08;;;;;;;11.53;6.13;;;;;;;;;;5021355;28;20686;-85
2021/01/29 06:56:42;;;;;;;14.43;6.20;;;-3.00;99.90;;;;;;5026029;28;20197;-84
2021/01/29 06:59:27;;;;;;;18.27;7.03;;;-2.90;99.90;;;;;;5010842;28;20603;-85
2021/01/29 07:02:11;;;;;;;14.27;6.47;;;-3.00;99.90;;;;;;5009584;28;20208;-85
2021/01/29 07:04:57;;;;;;;15.37;6.93;;;-2.90;99.90;;;;;;4995954;28;20196;-85
2021/01/29 07:07:23;;;;;;;16.30;7.57;;;;;;;;;;5007437;28;20273;-84
2021/01/29 07:10:31;;;;;;;14.20;6.83;;;-3.00;99.90;;;;;;5009560;28;20807;-85
2021/01/29 07:13:19;;;;;;;15.43;8.00;;;-2.80;99.90;;;;;;5010530;28;20184;-84
2021/01/29 07:15:55;;;;;;;20.13;8.27;;;-2.60;99.90;;;;;;5024600;28;20238;-84
2021/01/29 07:18:36;;;;;;;21.23;9.77;;;-2.80;99.90;;;;;;5028714;28;20180;-83
2021/01/29 07:21:02;;;;;;;12.33;6.47;;;;;;;;;;5023188;28;20213;-84
2021/01/29 07:23:50;;;;;;;10.73;5.83;;;-2.70;99.90;;;;;;5009331;28;20194;-85
2021/01/29 07:26:42;;;;;;;15.13;7.93;;;-2.40;99.90;;;;;;5030796;28;20235;-85
2021/01/29 07:29:14;;;;;;;15.20;7.23;;;-2.50;99.90;;;;;;5022926;28;20271;-84
2021/01/29 07:31:50;;;;;;;17.17;8.27;;;-2.40;99.90;;;;;;5030887;28;20258;-84
2021/01/29 07:34:38;;;;;;;15.07;7.53;;;-2.40;99.90;;;;;;5005963;28;20177;-84
2021/01/29 07:37:04;;;;;;;15.73;7.30;;;;;;;;;;5014451;28;20192;-86
2021/01/29 07:40:11;;;;;;;13.43;7.03;;;-2.50;99.90;;;;;;5015928;28;20185;-86
2021/01/29 07:43:14;;;;;;;12.60;6.90;;;-2.40;99.90;;;;;;4973571;28;20197;-84
2021/01/29 07:45:54;;;;;;;11.43;5.77;;;-2.50;99.90;;;;;;4957965;28;20662;-85
2021/01/29 07:48:46;;;;;;;17.00;8.60;;;-2.60;99.90;;;;;;5023527;28;20184;-84
2021/01/29 07:51:53;;;;;;;12.43;6.37;;;-2.70;99.90;;;;;;5033988;28;20181;-85
2021/01/29 07:54:28;;;;;;;11.67;6.60;;;-2.40;99.90;;;;;;5015555;28;20234;-82
2021/01/29 07:57:17;;;;;;;15.63;7.47;;;-2.50;99.90;;;;;;5033408;28;20189;-83
2021/01/29 08:00:01;;;;;;;12.33;6.87;;;-2.80;99.90;;;;;;5016133;28;20380;-83
2021/01/29 08:02:59;;;;;;;13.23;6.73;;;-2.50;99.90;;;;;;5033884;28;20185;-84
2021/01/29 08:05:41;;;;;;;9.20;5.93;;;-2.50;99.90;;;;;;5007502;28;20307;-84
2021/01/29 08:08:15;;;;;;;10.40;6.47;;;-2.50;99.90;;;;;;5006966;28;20183;-84
2021/01/29 08:10:44;;;;;;;15.00;7.43;;;-2.50;99.90;;;;;;5013882;28;20212;-85
2021/01/29 08:13:31;;;;;;;12.13;5.93;;;-2.50;99.90;;;;;;5008025;28;20188;-84
2021/01/29 08:16:21;;;;;;;10.50;7.00;;;-2.40;99.90;;;;;;5011574;28;20180;-84
2021/01/29 08:18:47;;;;;;;14.90;6.87;;;;;;;;;;5013567;28;20181;-85
2021/01/29 08:21:50;;;;;;;12.50;7.37;;;-2.30;99.90;;;;;;5013829;28;20730;-83
2021/01/29 08:24:30;;;;;;;15.23;7.93;;;-2.50;99.90;;;;;;5012984;28;20183;-82
2021/01/29 08:27:25;;;;;;;13.63;6.57;;;-2.30;99.90;;;;;;5013033;28;20191;-85
2021/01/29 08:30:10;;;;;;;9.20;6.17;;;-2.30;99.90;;;;;;5013308;28;20176;-85
2021/01/29 08:32:47;;;;;;;8.40;5.43;;;-1.90;99.90;;;;;;5013378;28;20204;-82
2021/01/29 08:35:31;;;;;;;16.20;8.33;;;-2.20;99.90;;;;;;5013323;28;20181;-83
2021/01/29 08:38:10;;;;;;;12.03;6.80;;;-2.10;99.90;;;;;;5013260;28;20191;-82
2021/01/29 08:41:19;;;;;;;11.70;6.33;;;-2.20;99.90;;;;;;4995245;28;20202;-83
2021/01/29 08:44:06;;;;;;;8.27;5.37;;;-2.10;99.90;;;;;;4996365;28;20197;-83
2021/01/29 08:46:40;;;;;;;9.77;6.77;;;-2.00;99.90;;;;;;4995421;28;20187;-84
2021/01/29 08:49:31;;;;;;;15.03;6.67;;;-2.20;99.90;;;;;;4995422;28;20338;-82
2021/01/29 08:52:22;;;;;;;16.23;8.30;;;-2.10;99.90;;;;;;5013282;28;20655;-84
2021/01/29 08:55:12;;;;;;;19.73;7.07;;;-2.00;99.90;;;;;;5012635;28;20234;-82
2021/01/29 08:57:56;;;;;;;18.67;7.33;;;-2.00;99.90;;;;;;5013052;28;20219;-83
2021/01/29 09:00:28;;;;;;;15.53;8.40;;;-1.80;99.90;;;;;;5012966;28;20201;-85
2021/01/29 09:02:54;;;;;;;16.50;7.90;;;;;;;;;;4995300;28;20191;-84
2021/01/29 09:05:24;;;;;;;17.80;8.07;;;-1.90;99.90;;;;;;5012814;28;20173;-84
2021/01/29 09:08:04;;;;;;;10.47;5.87;;;-1.80;99.90;;;;;;4995244;28;20279;-83
2021/01/29 09:10:51;;;;;;;11.23;6.27;;;-1.80;99.90;;;;;;5013624;28;20188;-84
2021/01/29 09:13:21;;;;;;;14.07;6.97;;;-1.90;99.90;;;;;;5013050;28;20208;-83
2021/01/29 09:15:50;;;;;;;19.73;7.37;;;-1.90;99.90;;;;;;4994516;28;20648;-85
2021/01/29 09:18:37;;;;;;;14.80;7.50;;;-1.90;99.90;;;;;;5012949;28;20705;-84
2021/01/29 09:21:17;;;;;;;8.70;5.60;;;-1.90;99.90;;;;;;4994667;28;20210;-84
2021/01/29 09:24:05;;;;;;;12.23;7.10;;;-1.80;99.90;;;;;;4994110;28;20547;-83
2021/01/29 09:26:42;;;;;;;13.57;8.83;;;-1.80;99.90;;;;;;5011959;28;20234;-83
2021/01/29 09:29:16;;;;;;;12.17;7.20;;;-1.90;99.90;;;;;;5012279;28;20257;-83
2021/01/29 09:31:44;;;;;;;9.33;6.33;;;-1.80;99.90;;;;;;5011633;28;20182;-82
2021/01/29 09:34:20;;;;;;;12.67;5.60;;;-1.60;99.90;;;;;;4994617;28;20188;-83
2021/01/29 09:36:56;;;;;;;7.97;5.83;;;-1.60;99.90;;;;;;5011616;28;20677;-83
2021/01/29 09:39:30;;;;;;;8.50;6.53;;;-1.80;99.90;;;;;;5012058;28;20172;-82
2021/01/29 09:41:59;;;;;;;12.77;8.50;;;-1.80;99.90;;;;;;4994338;28;20213;-83
2021/01/29 09:44:25;;;;;;;11.97;7.10;;;;;;;;;;4994961;28;20189;-82
2021/01/29 09:46:57;;;;;;;15.03;8.00;;;-1.80;99.90;;;;;;5012472;28;20214;-84
2021/01/29 09:49:27;;;;;;;16.27;7.73;;;-1.70;99.90;;;;;;4997231;28;20184;-82
2021/01/29 09:52:04;;;;;;;15.43;6.93;;;-1.70;99.90;;;;;;5015718;28;20193;-83
2021/01/29 09:54:39;;;;;;;14.83;7.00;;;-1.70;99.90;;;;;;5016097;28;20229;-84
2021/01/29 09:57:10;;;;;;;12.57;6.93;;;-1.60;99.90;;;;;;5015523;28;20174;-84
2021/01/29 09:59:42;;;;;;;13.83;8.77;;;-1.60;99.90;;;;;;5014211;28;20794;-84
2021/01/29 10:02:14;;;;;;;18.07;6.37;;;-1.80;99.90;;;;;;4997371;28;20659;-83
2021/01/29 10:05:07;;;;;;;14.93;8.10;;;-1.60;99.90;;;;;;4996819;28;20213;-84
2021/01/29 10:07:37;;;;;;;11.80;6.17;;;-1.70;99.90;;;;;;5014998;28;20261;-85
2021/01/29 10:10:03;;;;;;;17.23;7.33;;;;;;;;;;5014633;28;20694;-83
2021/01/29 10:12:33;;;;;;;8.47;5.13;;;-1.70;99.90;;;;;;5014800;28;20532;-82
2021/01/29 10:15:12;;;;;;;10.90;6.03;;;-1.70;99.90;;;;;;5014567;28;20181;-83
2021/01/29 10:18:06;;;;;;;11.90;5.47;;;-1.70;99.90;;;;;;4997922;28;20583;-85
2021/01/29 10:20:35;;;;;;;11.93;6.77;;;-1.70;99.90;;;;;;5015359;28;20646;-81
2021/01/29 10:23:25;;;;;;;15.67;7.93;;;-1.60;99.90;;;;;;5015174;28;20174;-83
2021/01/29 10:26:22;;;;;;;9.80;5.23;;;-1.90;99.90;;;;;;4997924;28;20182;-85
2021/01/29 10:28:51;;;;;;;7.37;5.00;;;-2.00;99.90;;;;;;5014745;28;20634;-83
2021/01/29 10:31:19;;;;;;;11.13;6.20;;;-1.50;99.90;;;;;;5015208;28;20181;-80
2021/01/29 10:33:58;;;;;;;9.50;6.33;;;-1.50;99.90;;;;;;5014561;28;20216;-84
2021/01/29 10:36:33;;;;;;;11.93;7.97;;;-1.40;99.90;;;;;;5015271;28;20177;-84
2021/01/29 10:39:10;;;;;;;10.63;5.97;;;-1.60;99.90;;;;;;4997190;28;20205;-86
2021/01/29 10:42:01;;;;;;;10.80;6.23;;;-1.60;99.90;;;;;;5014350;28;20197;-86
2021/01/29 10:44:34;;;;;;;8.97;5.93;;;-1.70;99.90;;;;;;5014878;28;20654;-84
2021/01/29 10:47:30;;;;;;;24.17;7.40;;;-1.40;99.90;;;;;;4996981;28;20182;-85
2021/01/29 10:50:28;;;;;;;15.07;6.83;;;-1.40;99.90;;;;;;4989725;28;20184;-86
2021/01/29 10:53:09;;;;;;;8.43;5.00;;;-1.00;99.90;;;;;;5014888;28;20169;-83
2021/01/29 10:55:41;;;;;;;10.17;5.73;;;-0.80;99.90;;;;;;4993784;28;20280;-86
2021/01/29 10:58:34;;;;;;;10.23;5.50;;;-0.10;99.90;;;;;;4994435;28;20572;-85
2021/01/29 11:01:05;;;;;;;9.43;5.03;;;-0.60;99.90;;;;;;4994010;28;20217;-85
2021/01/29 11:03:40;;;;;;;9.70;6.17;;;-0.60;99.90;;;;;;4995207;28;20185;-84
2021/01/29 11:06:09;;;;;;;14.77;5.73;;;-0.90;99.90;;;;;;4993844;28;20192;-85
2021/01/29 11:08:42;;;;;;;7.63;5.63;;;-1.00;99.90;;;;;;4993790;28;20181;-86
2021/01/29 11:11:15;;;;;;;9.13;5.37;;;-1.00;99.90;;;;;;4993716;28;20188;-86
2021/01/29 11:14:21;;;;;;;12.07;7.60;;;-1.10;99.90;;;;;;4993324;28;20189;-86
2021/01/29 11:17:08;;;;;;;8.70;5.30;;;-0.90;99.90;;;;;;4995204;28;20834;-84
2021/01/29 11:19:41;;;;;;;8.07;5.07;;;-1.00;99.90;;;;;;4993759;28;20197;-84
2021/01/29 11:22:45;;;;;;;9.03;5.63;;;-1.10;99.90;;;;;;4993673;28;20244;-84
2021/01/29 11:25:37;;;;;;;7.23;4.30;;;-1.00;99.90;;;;;;4994438;28;20191;-85
2021/01/29 11:28:26;;;;;;;10.00;5.43;;;-1.40;99.90;;;;;;4993320;28;20181;-84
2021/01/29 11:31:09;;;;;;;9.87;7.30;;;-1.40;99.90;;;;;;4994053;28;20178;-84
2021/01/29 11:33:39;;;;;;;16.27;7.50;;;-1.30;99.90;;;;;;4991733;28;20181;-85
2021/01/29 11:36:15;;;;;;;9.40;5.50;;;-1.20;99.90;;;;;;4994653;28;20185;-83
2021/01/29 11:38:41;;;;;;;12.03;6.07;;;;;;;;;;4994187;28;20314;-84
2021/01/29 11:41:28;;;;;;;14.10;7.90;;;-1.40;99.90;;;;;;4993136;28;20251;-83
2021/01/29 11:44:16;;;;;;;13.03;7.97;;;-1.20;99.90;;;;;;4990952;28;20179;-83
2021/01/29 11:47:40;;;;;;;11.87;9.03;;;-1.40;99.90;;;;;;4989435;28;20214;-82
2021/01/29 11:50:31;;;;;;;19.17;8.80;;;-1.40;99.90;;;;;;4934535;29;20766;-84
2021/01/29 11:53:10;;;;;;;12.53;7.17;;;-1.40;99.90;;;;;;4934523;29;20266;-82
2021/01/29 11:55:51;;;;;;;9.70;5.83;;;-1.50;99.90;;;;;;5006540;28;20236;-83
2021/01/29 11:58:17;;;;;;;10.67;6.67;;;;;;;;;;4993935;28;20187;-82
2021/01/29 12:01:10;;;;;;;18.67;9.40;;;-1.60;99.90;;;;;;4993944;28;20220;-82
2021/01/29 12:03:36;;;;;;;16.13;8.97;;;;;;;;;;4992839;28;20178;-85
2021/01/29 12:06:28;;;;;;;14.23;8.07;;;-1.60;99.90;;;;;;4992460;28;20191;-84
2021/01/29 12:09:03;;;;;;;13.03;7.37;;;-1.80;99.90;;;;;;4990455;28;20197;-84
2021/01/29 12:11:36;;;;;;;19.23;10.23;;;-1.70;99.90;;;;;;4984691;28;20229;-83
2021/01/29 12:14:15;;;;;;;18.73;8.90;;;-1.60;99.90;;;;;;4992181;28;20202;-83
2021/01/29 12:16:41;;;;;;;20.80;9.93;;;;;;;;;;4991722;28;20185;-83
2021/01/29 12:19:09;;;;;;;12.43;7.37;;;-1.70;99.90;;;;;;4991913;28;20186;-84
2021/01/29 12:22:01;;;;;;;20.77;10.23;;;-1.60;99.90;;;;;;4992460;28;20194;-83
2021/01/29 12:24:28;;;;;;;16.10;9.50;;;;;;;;;;4969844;28;20680;-84
2021/01/29 12:27:06;;;;;;;20.90;10.03;;;-1.80;99.90;;;;;;4993645;28;20175;-88
2021/01/29 12:30:07;;;;;;;12.60;7.90;;;-2.00;99.90;;;;;;4990184;28;20224;-86
2021/01/29 12:32:39;;;;;;;12.10;7.93;;;-1.70;99.90;;;;;;4990335;28;20658;-83
2021/01/29 12:35:48;;;;;;;17.70;9.07;;;-2.00;99.90;;;;;;4991770;28;20200;-85
2021/01/29 12:38:21;;;;;;;16.57;9.60;;;-1.20;99.90;;;;;;4990015;28;20192;-84
2021/01/29 12:40:47;;;;;;;20.13;8.87;;;;;;;;;;4993431;28;20209;-84
2021/01/29 12:43:25;;;;;;;16.17;9.37;;;-1.80;99.90;;;;;;4992142;28;20186;-82
2021/01/29 12:46:09;;;;;;;24.03;12.37;;;-1.90;99.90;;;;;;4986174;28;20564;-83
2021/01/29 12:48:50;;;;;;;19.73;9.80;;;-1.50;99.90;;;;;;4989968;28;20638;-84
2021/01/29 12:51:22;;;;;;;21.27;9.67;;;-1.80;99.90;;;;;;4990005;28;20188;-83
2021/01/29 12:54:01;;;;;;;18.03;10.83;;;-1.90;99.90;;;;;;4993334;28;20218;-82
2021/01/29 12:56:27;;;;;;;21.23;12.33;;;;;;;;;;4973349;28;20209;-83
2021/01/29 12:58:56;;;;;;;19.03;10.27;;;-1.90;99.90;;;;;;4972564;28;20190;-83
2021/01/29 13:01:51;;;;;;;24.57;12.83;;;-2.00;99.90;;;;;;4973775;28;20600;-83
2021/01/29 13:04:17;;;;;;;27.63;9.80;;;;;;;;;;4969059;28;20193;-83
2021/01/29 13:06:45;;;;;;;26.30;12.17;;;-2.10;99.90;;;;;;4954331;28;20215;-82
2021/01/29 13:09:23;;;;;;;27.33;14.23;;;-1.80;99.90;;;;;;4973522;28;20673;-83
2021/01/29 13:12:03;;;;;;;26.77;13.77;;;-1.90;99.90;;;;;;4972637;28;20211;-83
2021/01/29 13:14:42;;;;;;;17.73;9.00;;;-2.00;99.90;;;;;;4968611;28;20193;-83
2021/01/29 13:17:27;;;;;;;21.73;10.90;;;-2.30;99.90;;;;;;4973749;28;20275;-83
2021/01/29 13:20:13;;;;;;;16.67;9.77;;;-2.20;99.90;;;;;;4956243;28;20629;-83
2021/01/29 13:22:44;;;;;;;18.97;10.90;;;-2.30;99.90;;;;;;4975333;28;20271;-83
2021/01/29 13:25:10;;;;;;;14.23;7.77;;;;;;;;;;4975429;28;20189;-82
2021/01/29 13:27:40;;;;;;;21.90;12.00;;;-2.10;99.90;;;;;;4976198;28;20182;-82
2021/01/29 13:30:38;;;;;;;18.87;10.93;;;-2.40;99.90;;;;;;4975901;28;20262;-83
2021/01/29 13:33:17;;;;;;;19.50;10.07;;;-2.10;99.90;;;;;;4974901;28;20176;-83
2021/01/29 13:35:46;;;;;;;28.33;12.43;;;-2.00;99.90;;;;;;4976251;28;20210;-82
2021/01/29 13:38:47;;;;;;;26.43;11.77;;;-1.90;99.90;;;;;;4977453;28;20189;-83
2021/01/29 13:41:21;;;;;;;26.83;13.90;;;-2.00;99.90;;;;;;4952420;28;20302;-85
2021/01/29 13:43:47;;;;;;;21.43;10.07;;;-2.10;99.90;;;;;;4969750;28;20177;-83
2021/01/29 13:46:19;;;;;;;16.67;10.83;;;-2.30;99.90;;;;;;4977122;28;20182;-84
2021/01/29 13:48:45;;;;;;;21.50;10.70;;;;;;;;;;4976128;28;20194;-84
2021/01/29 13:51:33;;;;;;;21.17;12.17;;;-2.10;99.90;;;;;;4973202;28;20193;-85
2021/01/29 13:54:01;;;;;;;18.07;11.50;;;;;;;;;;4979553;28;20172;-85
2021/01/29 13:56:48;;;;;;;19.73;11.23;;;-2.10;99.90;;;;;;5015842;28;20213;-84